createdAt,value
2018-07-12T00:02:00.825Z,31.60
2018-07-12T00:04:27.797Z,35.47
2018-07-12T00:06:55.667Z,27.23
2018-07-12T00:09:22.678Z,32.83
2018-07-12T00:11:49.715Z,31.10
2018-07-12T00:14:16.784Z,29.17
2018-07-12T00:16:44.170Z,30.33
2018-07-12T00:19:11.156Z,29.50
2018-07-12T00:21:38.208Z,33.10
2018-07-12T00:24:05.773Z,29.37
2018-07-12T00:26:32.864Z,26.30
2018-07-12T00:29:00.011Z,29.43
2018-07-12T00:31:26.995Z,36.17
2018-07-12T00:33:54.064Z,33.57
2018-07-12T00:36:21.199Z,27.77
2018-07-12T00:38:48.883Z,36.70
2018-07-12T00:41:16.812Z,31.57
2018-07-12T00:43:43.760Z,36.80
2018-07-12T00:46:10.834Z,38.73
2018-07-12T00:48:37.863Z,31.47
2018-07-12T00:51:05.608Z,24.23
2018-07-12T00:53:32.660Z,29.33
2018-07-12T00:55:59.817Z,28.90
2018-07-12T00:58:27.372Z,37.83
2018-07-12T01:00:54.467Z,37.17
2018-07-12T01:03:22.280Z,39.13
2018-07-12T01:05:49.277Z,43.97
2018-07-12T01:08:16.345Z,35.97
2018-07-12T01:10:43.382Z,34.23
2018-07-12T01:13:10.431Z,40.70
2018-07-12T01:15:37.484Z,35.73
2018-07-12T01:18:04.508Z,34.40
2018-07-12T01:20:32.090Z,31.73
2018-07-12T01:22:59.104Z,35.83
2018-07-12T01:25:26.164Z,34.07
2018-07-12T01:27:53.220Z,30.23
2018-07-12T01:30:20.287Z,37.87
2018-07-12T01:32:47.696Z,35.60
2018-07-12T01:35:14.791Z,42.13
2018-07-12T01:37:41.993Z,45.67
2018-07-12T01:40:09.181Z,37.83
2018-07-12T01:42:36.247Z,38.43
2018-07-12T01:45:03.405Z,41.03
2018-07-12T01:47:30.447Z,41.23
2018-07-12T01:49:57.521Z,53.33
2018-07-12T02:05:26.616Z,42.67
2018-07-12T02:07:56.078Z,44.50
2018-07-12T02:10:23.137Z,61.10
2018-07-12T02:12:50.220Z,64.17
2018-07-12T02:15:17.232Z,66.97
2018-07-12T02:17:44.268Z,58.97
2018-07-12T02:20:11.417Z,56.63
2018-07-12T02:22:38.483Z,50.80
2018-07-12T02:25:05.568Z,47.80
2018-07-12T02:27:32.601Z,48.60
2018-07-12T02:29:59.735Z,48.80
2018-07-12T02:32:27.102Z,46.27
2018-07-12T02:34:54.558Z,37.40
2018-07-12T02:37:21.721Z,38.40
2018-07-12T02:39:48.713Z,46.03
2018-07-12T02:42:16.364Z,46.50
2018-07-12T02:44:44.461Z,44.17
2018-07-12T02:47:11.500Z,47.57
2018-07-12T02:49:39.087Z,47.77
2018-07-12T02:52:06.208Z,44.87
2018-07-12T02:54:33.572Z,43.37
2018-07-12T03:10:01.332Z,42.43
2018-07-12T03:12:28.402Z,53.07
2018-07-12T03:14:56.632Z,59.03
2018-07-12T03:17:24.280Z,54.83
2018-07-12T03:19:51.209Z,58.13
2018-07-12T03:22:18.370Z,52.60
2018-07-12T03:24:45.980Z,51.53
2018-07-12T03:27:13.021Z,42.07
2018-07-12T03:29:39.993Z,40.30
2018-07-12T03:32:07.148Z,32.10
2018-07-12T03:34:34.176Z,45.77
2018-07-12T03:37:03.350Z,37.57
2018-07-12T03:39:30.597Z,45.67
2018-07-12T03:41:58.908Z,39.93
2018-07-12T03:44:26.694Z,39.43
2018-07-12T03:46:54.540Z,42.97
2018-07-12T03:49:21.484Z,43.23
2018-07-12T03:51:48.536Z,43.63
2018-07-12T03:54:15.484Z,44.50
2018-07-12T03:56:43.367Z,43.60
2018-07-12T03:59:10.482Z,45.93
2018-07-12T04:01:37.624Z,49.23
2018-07-12T04:04:04.627Z,59.30
2018-07-12T04:06:31.644Z,61.80
2018-07-12T04:08:58.764Z,60.33
2018-07-12T04:21:10.896Z,54.70
2018-07-12T04:23:38.086Z,28.70
2018-07-12T04:26:05.079Z,23.53
2018-07-12T04:28:32.962Z,16.50
2018-07-12T04:31:01.542Z,15.47
2018-07-12T04:33:29.213Z,20.57
2018-07-12T04:35:56.432Z,18.53
2018-07-12T04:38:23.376Z,14.30
2018-07-12T04:40:50.545Z,16.20
2018-07-12T04:43:17.628Z,11.97
2018-07-12T04:45:44.737Z,17.67
2018-07-12T04:48:11.793Z,11.80
2018-07-12T04:50:38.833Z,13.23
2018-07-12T04:53:06.028Z,14.67
2018-07-12T04:55:33.070Z,12.70
2018-07-12T04:58:00.111Z,15.05
2018-07-12T05:00:27.156Z,10.75
2018-07-12T05:02:54.177Z,10.72
2018-07-12T05:05:21.136Z,12.50
2018-07-12T05:07:48.104Z,11.63
2018-07-12T05:10:15.260Z,10.63
2018-07-12T05:12:42.410Z,10.58
2018-07-12T05:15:09.533Z,12.93
2018-07-12T05:17:36.657Z,10.43
2018-07-12T05:20:04.133Z,10.20
2018-07-12T05:22:31.152Z,10.43
2018-07-12T05:24:58.248Z,11.45
2018-07-12T05:27:26.280Z,11.48
2018-07-12T05:29:53.292Z,11.00
2018-07-12T05:32:21.260Z,10.50
2018-07-12T05:34:48.497Z,11.50
2018-07-12T05:37:16.408Z,14.07
2018-07-12T05:39:44.252Z,11.65
2018-07-12T05:42:12.125Z,10.60
2018-07-12T05:44:40.022Z,11.33
2018-07-12T05:47:07.826Z,13.38
2018-07-12T05:49:35.699Z,9.95
2018-07-12T05:52:03.461Z,13.72
2018-07-12T05:54:31.228Z,10.88
2018-07-12T05:56:59.127Z,9.50
2018-07-12T05:59:26.854Z,9.60
2018-07-12T06:02:00.141Z,9.33
2018-07-12T06:04:29.226Z,9.30
2018-07-12T06:06:57.040Z,9.23
2018-07-12T06:09:25.812Z,10.75
2018-07-12T06:11:54.051Z,12.80
2018-07-12T06:14:21.946Z,11.38
2018-07-12T06:16:50.245Z,9.60
2018-07-12T06:19:18.099Z,9.18
2018-07-12T06:21:45.954Z,10.43
2018-07-12T06:24:13.747Z,8.43
2018-07-12T06:26:41.615Z,9.03
2018-07-12T06:29:09.996Z,9.70
2018-07-12T06:31:37.865Z,16.10
2018-07-12T06:34:05.713Z,8.98
2018-07-12T06:36:33.576Z,9.65
2018-07-12T06:39:02.310Z,9.48
2018-07-12T06:41:30.140Z,14.60
2018-07-12T06:43:57.994Z,11.25
2018-07-12T06:46:25.862Z,11.15
2018-07-12T06:48:53.632Z,11.38
2018-07-12T06:51:21.528Z,11.83
2018-07-12T06:53:49.382Z,8.35
2018-07-12T06:56:17.240Z,8.50
2018-07-12T06:58:45.109Z,13.88
2018-07-12T07:01:12.967Z,8.18
2018-07-12T07:03:41.891Z,10.23
2018-07-12T07:06:10.248Z,11.43
2018-07-12T07:08:38.135Z,9.83
2018-07-12T07:11:06.005Z,7.60
2018-07-12T07:13:33.751Z,9.68
2018-07-12T07:16:01.839Z,8.25
2018-07-12T07:18:29.694Z,8.45
2018-07-12T07:20:57.650Z,8.88
2018-07-12T07:23:25.628Z,5.95
2018-07-12T07:25:53.596Z,8.70
2018-07-12T07:28:21.501Z,13.37
2018-07-12T07:30:49.370Z,9.63
2018-07-12T07:33:17.194Z,8.00
2018-07-12T07:35:45.104Z,11.40
2018-07-12T07:38:13.235Z,9.30
2018-07-12T07:40:56.172Z,10.40
2018-07-12T07:43:23.998Z,19.40
2018-07-12T07:45:58.769Z,8.37
2018-07-12T07:48:26.667Z,5.60
2018-07-12T07:50:54.750Z,7.47
2018-07-12T07:53:22.613Z,7.37
2018-07-12T07:55:50.334Z,9.13
2018-07-12T07:58:18.164Z,9.50
2018-07-12T08:00:45.989Z,7.67
2018-07-12T08:03:13.847Z,7.37
2018-07-12T08:05:41.698Z,8.60
2018-07-12T08:08:09.498Z,7.27
2018-07-12T08:10:38.190Z,7.47
2018-07-12T08:13:06.045Z,8.67
2018-07-12T08:35:09.793Z,6.90
2018-07-12T08:37:37.966Z,6.00
2018-07-12T08:40:05.832Z,10.07
2018-07-12T08:42:33.884Z,15.83
2018-07-12T08:45:02.670Z,6.50
2018-07-12T08:47:30.472Z,6.72
2018-07-12T08:50:01.188Z,10.20
2018-07-12T08:52:30.157Z,4.67
2018-07-12T08:54:59.571Z,6.03
2018-07-12T08:57:28.606Z,6.67
2018-07-12T08:59:56.968Z,5.50
2018-07-12T09:02:25.899Z,5.42
2018-07-12T09:04:57.104Z,4.10
2018-07-12T09:07:25.373Z,6.53
2018-07-12T09:09:56.340Z,5.00
2018-07-12T09:12:25.297Z,6.95
2018-07-12T09:14:54.540Z,6.47
2018-07-12T09:17:24.198Z,3.92
2018-07-12T09:19:52.008Z,6.90
2018-07-12T09:22:20.926Z,4.58
2018-07-12T09:24:50.361Z,5.85
2018-07-12T09:27:18.706Z,4.22
2018-07-12T09:29:47.385Z,4.15
2018-07-12T09:32:16.589Z,6.50
2018-07-12T09:34:45.166Z,6.87
2018-07-12T09:37:14.334Z,12.05
2018-07-12T09:39:42.476Z,9.33
2018-07-12T09:42:11.255Z,15.35
2018-07-12T09:44:39.207Z,12.53
2018-07-12T09:47:07.659Z,6.17
2018-07-12T09:49:36.612Z,9.38
2018-07-12T09:52:09.542Z,6.72
2018-07-12T09:54:37.448Z,4.87
2018-07-12T09:57:10.565Z,5.47
2018-07-12T09:59:39.117Z,4.83
2018-07-12T10:02:12.109Z,4.97
2018-07-12T10:04:40.418Z,5.42
2018-07-12T10:07:13.492Z,4.92
2018-07-12T10:09:46.648Z,6.28
2018-07-12T10:12:20.560Z,13.32
2018-07-12T10:14:56.384Z,12.28
2018-07-12T10:17:31.847Z,7.70
2018-07-12T10:20:03.809Z,12.70
2018-07-12T10:22:35.275Z,14.07
2018-07-12T10:25:19.069Z,13.97
2018-07-12T10:27:48.887Z,14.53
2018-07-12T10:30:18.828Z,10.40
2018-07-12T10:32:49.627Z,11.07
2018-07-12T10:35:39.342Z,14.73
2018-07-12T10:38:10.731Z,11.60
2018-07-12T10:40:43.521Z,14.17
2018-07-12T10:43:39.773Z,28.63
2018-07-12T10:46:11.410Z,7.93
2018-07-12T10:48:42.780Z,11.63
2018-07-12T10:51:13.351Z,23.80
2018-07-12T10:53:44.550Z,27.80
2018-07-12T10:56:16.250Z,29.53
2018-07-12T10:58:47.169Z,25.50
2018-07-12T11:01:21.032Z,51.77
2018-07-12T11:03:52.181Z,16.70
2018-07-12T11:06:22.684Z,20.27
2018-07-12T11:08:53.561Z,26.07
2018-07-12T11:11:24.624Z,35.50
2018-07-12T11:13:57.784Z,34.00
2018-07-12T11:16:28.569Z,45.53
2018-07-12T11:18:58.794Z,54.47
2018-07-12T11:21:29.695Z,47.97
2018-07-12T11:24:00.739Z,52.30
2018-07-12T11:26:32.377Z,44.27
2018-07-12T11:29:03.187Z,47.27
2018-07-12T11:31:33.242Z,45.73
2018-07-12T11:34:10.646Z,42.80
2018-07-12T11:36:41.786Z,22.27
2018-07-12T11:39:12.891Z,15.73
2018-07-12T11:41:45.145Z,13.10
2018-07-12T11:44:15.639Z,13.27
2018-07-12T11:46:47.241Z,15.03
2018-07-12T11:49:17.984Z,20.03
2018-07-12T11:51:48.262Z,16.60
2018-07-12T11:54:18.582Z,17.00
2018-07-12T11:56:53.660Z,20.07
2018-07-12T11:59:33.530Z,18.60
2018-07-12T12:02:04.310Z,14.90
2018-07-12T12:04:35.083Z,14.20
2018-07-12T12:07:06.518Z,13.50
2018-07-12T12:09:36.851Z,11.00
2018-07-12T12:12:07.421Z,10.73
2018-07-12T12:16:07.844Z,13.83
2018-07-12T12:18:38.196Z,8.17
2018-07-12T12:21:08.764Z,7.67
2018-07-12T12:23:39.905Z,7.27
2018-07-12T12:26:11.956Z,6.47
2018-07-12T12:28:49.618Z,7.57
2018-07-12T12:31:21.590Z,7.47
2018-07-12T12:33:56.069Z,8.17
2018-07-12T12:36:26.644Z,8.47
2018-07-12T12:38:57.155Z,7.00
2018-07-12T12:41:27.824Z,6.60
2018-07-12T12:44:14.011Z,6.50
2018-07-12T12:46:44.984Z,6.97
2018-07-12T12:49:15.520Z,7.13
2018-07-12T12:51:46.566Z,7.07
2018-07-12T12:54:17.397Z,6.97
2018-07-12T12:56:52.738Z,7.47
2018-07-12T12:59:22.911Z,7.63
2018-07-12T13:01:54.901Z,6.13
2018-07-12T13:04:26.778Z,6.40
2018-07-12T13:07:12.071Z,6.60
2018-07-12T13:09:42.785Z,6.45
2018-07-12T13:12:13.917Z,5.37
2018-07-12T13:14:44.746Z,5.85
2018-07-12T13:17:15.499Z,6.50
2018-07-12T13:19:46.274Z,5.70
2018-07-12T13:22:16.831Z,6.65
2018-07-12T13:24:47.748Z,5.78
2018-07-12T13:27:19.105Z,6.30
2018-07-12T13:30:01.687Z,6.03
2018-07-12T13:32:32.549Z,5.90
2018-07-12T13:35:03.077Z,7.28
2018-07-12T13:37:33.622Z,5.67
2018-07-12T13:40:08.293Z,6.20
2018-07-12T13:42:39.172Z,6.22
2018-07-12T13:45:10.071Z,7.17
2018-07-12T13:47:41.463Z,6.62
2018-07-12T13:50:32.465Z,5.80
2018-07-12T13:53:02.939Z,5.60
2018-07-12T13:55:33.518Z,9.55
2018-07-12T13:58:03.987Z,4.72
2018-07-12T14:00:34.648Z,5.17
2018-07-12T14:03:05.121Z,4.12
2018-07-12T14:05:43.622Z,5.30
2018-07-12T14:08:14.259Z,3.22
2018-07-12T14:10:45.299Z,2.92
2018-07-12T14:13:16.270Z,2.80
2018-07-12T14:15:47.137Z,2.65
2018-07-12T14:18:21.728Z,2.80
2018-07-12T14:20:52.755Z,5.78
2018-07-12T14:23:24.241Z,3.75
2018-07-12T14:25:55.291Z,3.00
2018-07-12T14:28:24.409Z,3.47
2018-07-12T14:30:54.206Z,3.17
2018-07-12T14:33:22.360Z,3.22
2018-07-12T14:35:50.262Z,2.92
2018-07-12T14:38:18.163Z,3.58
2018-07-12T14:40:47.671Z,4.37
2018-07-12T14:43:16.540Z,3.02
2018-07-12T14:45:44.404Z,3.27
2018-07-12T14:48:13.227Z,3.80
2018-07-12T14:50:41.148Z,3.30
2018-07-12T14:53:09.352Z,4.75
2018-07-12T15:12:20.700Z,3.37
2018-07-12T15:14:49.016Z,2.47
2018-07-12T15:17:19.335Z,5.70
2018-07-12T15:19:50.994Z,3.00
2018-07-12T15:22:21.440Z,4.10
2018-07-12T15:24:53.973Z,5.97
2018-07-12T15:27:25.739Z,5.47
2018-07-12T15:29:56.882Z,4.15
2018-07-12T15:32:27.796Z,2.75
2018-07-12T15:34:59.269Z,4.10
2018-07-12T15:37:28.197Z,2.43
2018-07-12T15:39:59.480Z,3.33
2018-07-12T15:42:28.739Z,2.80
2018-07-12T15:44:58.431Z,6.90
2018-07-12T15:47:34.706Z,4.90
2018-07-12T15:50:04.804Z,3.87
2018-07-12T15:52:35.776Z,2.30
2018-07-12T15:55:06.592Z,2.17
2018-07-12T15:57:36.552Z,2.10
2018-07-12T16:00:07.613Z,2.90
2018-07-12T16:02:54.739Z,4.50
2018-07-12T16:05:22.525Z,2.57
2018-07-12T16:07:50.469Z,5.23
2018-07-12T16:10:18.270Z,5.13
2018-07-12T16:12:46.122Z,2.70
2018-07-12T16:15:13.905Z,3.37
2018-07-12T16:17:41.765Z,3.93
2018-07-12T16:20:09.693Z,3.70
2018-07-12T16:22:38.224Z,2.97
2018-07-12T16:25:06.104Z,4.17
2018-07-12T16:27:33.766Z,2.73
2018-07-12T16:30:01.748Z,3.33
2018-07-12T16:32:29.477Z,3.97
2018-07-12T16:34:57.369Z,4.30
2018-07-12T16:37:25.282Z,2.70
2018-07-12T16:39:53.697Z,3.57
2018-07-12T16:42:21.672Z,5.30
2018-07-12T16:44:49.536Z,12.53
2018-07-12T16:47:17.404Z,4.60
2018-07-12T16:49:45.273Z,5.40
2018-07-12T16:52:12.983Z,3.10
2018-07-12T16:54:40.837Z,3.47
2018-07-12T16:57:08.704Z,4.00
2018-07-12T16:59:36.636Z,4.50
2018-07-12T17:02:04.425Z,5.10
2018-07-12T17:04:32.293Z,4.17
2018-07-12T17:07:00.193Z,6.23
2018-07-12T17:09:28.030Z,6.83
2018-07-12T17:11:55.791Z,4.67
2018-07-12T17:14:23.772Z,4.03
2018-07-12T17:16:52.266Z,4.13
2018-07-12T17:19:20.070Z,6.43
2018-07-12T17:21:47.879Z,3.20
2018-07-12T17:24:16.073Z,4.23
2018-07-12T17:26:43.958Z,8.23
2018-07-12T17:29:11.911Z,4.80
2018-07-12T17:31:40.163Z,6.60
2018-07-12T17:34:08.057Z,5.33
2018-07-12T17:36:36.627Z,8.70
2018-07-12T17:39:05.507Z,7.07
2018-07-12T17:41:33.283Z,4.00
2018-07-12T17:44:01.151Z,3.77
2018-07-12T17:46:29.036Z,6.47
2018-07-12T17:48:57.312Z,4.23
2018-07-12T17:51:26.011Z,3.60
2018-07-12T17:53:53.651Z,4.13
2018-07-12T17:56:22.080Z,5.20
2018-07-12T17:58:51.678Z,4.30
2018-07-12T18:01:19.519Z,5.30
2018-07-12T18:03:47.370Z,3.80
2018-07-12T18:06:15.239Z,4.67
2018-07-12T18:08:43.525Z,4.23
2018-07-12T18:11:11.400Z,4.77
2018-07-12T18:13:39.272Z,3.97
2018-07-12T18:16:07.158Z,4.97
2018-07-12T18:18:34.971Z,4.60
2018-07-12T18:21:02.864Z,7.63
2018-07-12T18:23:31.148Z,3.73
2018-07-12T18:25:59.015Z,5.13
2018-07-12T18:28:27.066Z,4.60
2018-07-12T18:30:54.961Z,1.63
2018-07-12T18:33:22.825Z,1.70
2018-07-12T18:35:50.998Z,1.70
2018-07-12T18:38:18.895Z,1.50
2018-07-12T18:40:47.124Z,1.73
2018-07-12T18:56:15.243Z,3.13
2018-07-12T18:58:56.151Z,1.93
2018-07-12T19:01:26.635Z,2.37
2018-07-12T19:03:58.891Z,1.43
2018-07-12T19:06:34.236Z,2.13
2018-07-12T19:09:02.584Z,2.10
2018-07-12T19:11:30.600Z,1.87
2018-07-12T19:13:59.987Z,2.80
2018-07-12T19:16:28.291Z,3.27
2018-07-12T19:18:56.635Z,1.47
2018-07-12T19:21:24.949Z,1.40
2018-07-12T19:24:01.408Z,1.17
2018-07-12T19:26:33.381Z,3.00
2018-07-12T19:29:04.574Z,1.37
2018-07-12T19:31:35.657Z,1.10
2018-07-12T19:34:07.525Z,1.20
2018-07-12T19:36:38.810Z,2.30
2018-07-12T19:39:12.850Z,1.80
2018-07-12T19:41:46.766Z,1.83
2018-07-12T19:44:16.438Z,1.63
2018-07-12T19:46:47.108Z,1.50
2018-07-12T19:49:18.480Z,1.40
2018-07-12T19:51:58.461Z,6.27
2018-07-12T19:54:40.313Z,1.73
2018-07-12T19:57:12.521Z,2.23
2018-07-12T19:59:43.194Z,1.63
2018-07-12T20:02:16.632Z,1.67
2018-07-12T20:04:48.636Z,1.57
2018-07-12T20:07:19.209Z,2.60
2018-07-12T20:09:50.212Z,7.50
2018-07-12T20:12:21.568Z,1.80
2018-07-12T20:15:19.938Z,2.17
2018-07-12T20:17:52.100Z,3.17
2018-07-12T20:20:24.092Z,1.77
2018-07-12T20:22:54.960Z,5.50
2018-07-12T20:25:25.972Z,3.73
2018-07-12T20:27:56.689Z,2.40
2018-07-12T20:31:26.104Z,1.97
2018-07-12T20:34:14.840Z,2.93
2018-07-12T20:36:48.940Z,2.57
2018-07-12T20:39:19.947Z,4.03
2018-07-12T20:41:51.710Z,3.57
2018-07-12T20:44:44.262Z,3.53
2018-07-12T20:47:14.322Z,3.27
2018-07-12T20:49:47.208Z,3.57
2018-07-12T20:52:17.887Z,3.77
2018-07-12T20:54:48.822Z,3.77
2018-07-12T21:04:15.172Z,4.37
2018-07-12T21:06:42.982Z,5.20
2018-07-12T21:09:12.440Z,5.43
2018-07-12T21:11:40.603Z,9.00
2018-07-12T21:14:08.631Z,6.67
2018-07-12T21:16:37.543Z,6.57
2018-07-12T21:19:05.395Z,7.57
2018-07-12T21:21:33.174Z,7.60
2018-07-12T21:24:01.070Z,8.87
2018-07-12T21:26:29.000Z,7.10
2018-07-12T21:28:56.978Z,7.43
2018-07-12T21:32:54.238Z,6.80
2018-07-12T21:35:22.238Z,7.40
2018-07-12T21:37:50.089Z,8.27
2018-07-12T21:40:17.964Z,8.53
2018-07-12T21:42:45.831Z,8.07
2018-07-12T21:45:13.440Z,8.63
2018-07-12T21:47:41.684Z,10.07
2018-07-12T21:50:11.158Z,7.70
2018-07-12T21:52:39.028Z,9.03
2018-07-12T21:55:06.894Z,9.63
2018-07-12T21:57:34.692Z,9.10
2018-07-12T22:00:02.535Z,8.80
2018-07-12T22:02:30.403Z,8.37
2018-07-12T22:04:58.051Z,10.43
2018-07-12T22:07:31.244Z,9.07
2018-07-12T22:09:59.132Z,9.40
2018-07-12T22:12:26.991Z,11.57
2018-07-12T22:14:55.015Z,12.53
2018-07-12T22:17:23.252Z,11.00
2018-07-12T22:19:50.979Z,10.27
2018-07-12T22:22:18.777Z,10.30
2018-07-12T22:24:58.339Z,11.10
2018-07-12T22:27:31.015Z,12.27
2018-07-12T22:30:00.300Z,11.97
2018-07-12T22:32:30.114Z,12.73
2018-07-12T22:35:00.589Z,13.27
2018-07-12T22:37:38.639Z,13.73
2018-07-12T22:40:22.887Z,15.30
2018-07-12T22:43:03.795Z,15.80
2018-07-12T22:45:44.729Z,15.37
2018-07-12T22:48:23.132Z,16.43
2018-07-12T22:51:06.589Z,17.13
2018-07-12T22:53:39.854Z,17.13
2018-07-12T22:56:19.923Z,16.70
2018-07-12T22:59:04.138Z,19.33
2018-07-12T23:01:47.698Z,18.97
2018-07-12T23:04:30.199Z,19.90
2018-07-12T23:07:10.311Z,22.83
2018-07-12T23:09:48.160Z,19.43
2018-07-12T23:12:23.581Z,18.87
2018-07-12T23:15:02.647Z,21.37
2018-07-12T23:17:41.893Z,23.40
2018-07-12T23:20:15.984Z,22.13
2018-07-12T23:22:49.463Z,21.60
2018-07-12T23:25:17.325Z,22.33
2018-07-12T23:27:45.161Z,21.03
2018-07-12T23:30:13.594Z,24.10
2018-07-12T23:32:41.546Z,26.03
2018-07-12T23:35:11.017Z,26.40
2018-07-12T23:37:39.079Z,25.53
2018-07-12T23:40:06.972Z,23.20
2018-07-12T23:42:34.632Z,21.40
2018-07-12T23:45:02.497Z,26.13
2018-07-12T23:47:30.280Z,26.30
2018-07-12T23:49:58.754Z,25.63
2018-07-12T23:52:27.094Z,24.00
2018-07-12T23:54:54.775Z,25.33
2018-07-12T23:57:23.443Z,26.80
2018-07-12T23:59:51.256Z,27.03
